Time;durP1;ratioP1;P1;durP2;ratioP2;P2;SDS_P1;SDS_P2;PMS_P1;PMS_P2;Temp;Humidity;BMP_temperature;BMP_pressure;BME280_temperature;BME280_humidity;BME280_pressure;Samples;Min_cycle;Max_cycle;Signal;HPM_P1;HPM_P2
2021/04/05 00:01:15;;;;;;;11.98;5.60;;;5.70;99.90;;;;;;5044231;28;20109;-73
2021/04/05 00:03:40;;;;;;;29.98;5.22;;;5.70;99.90;;;;;;5044116;28;20063;-73
2021/04/05 00:06:06;;;;;;;14.48;5.65;;;5.70;99.90;;;;;;5042703;28;20042;-71
2021/04/05 00:08:31;;;;;;;13.38;4.85;;;5.70;99.90;;;;;;5044292;28;20029;-73
2021/04/05 00:10:58;;;;;;;15.13;6.70;;;5.80;99.90;;;;;;5044489;28;20030;-72
2021/04/05 00:13:28;;;;;;;18.60;6.25;;;5.80;99.90;;;;;;5044237;28;20029;-74
2021/04/05 00:15:55;;;;;;;12.80;5.97;;;5.80;99.90;;;;;;5043049;28;20060;-72
2021/04/05 00:18:25;;;;;;;13.68;5.70;;;5.80;99.90;;;;;;5043866;28;20079;-72
2021/04/05 00:21:08;;;;;;;8.65;3.90;;;5.80;99.90;;;;;;5044182;28;20025;-72
2021/04/05 00:23:35;;;;;;;13.65;4.30;;;5.80;99.90;;;;;;5042718;28;20025;-73
2021/04/05 00:26:02;;;;;;;20.73;5.00;;;5.80;99.90;;;;;;5042586;28;20402;-74
2021/04/05 00:28:28;;;;;;;12.77;4.80;;;5.80;99.90;;;;;;5045875;28;20025;-73
2021/04/05 00:30:54;;;;;;;13.55;5.15;;;5.80;99.90;;;;;;5046399;28;20093;-70
2021/04/05 00:33:21;;;;;;;14.25;4.43;;;5.90;99.90;;;;;;5045725;28;20021;-73
2021/04/05 00:35:47;;;;;;;10.77;4.50;;;5.80;99.90;;;;;;5047558;28;20029;-72
2021/04/05 00:38:14;;;;;;;11.10;4.60;;;5.80;99.90;;;;;;5047519;28;20089;-73
2021/04/05 00:40:45;;;;;;;8.18;3.88;;;5.80;99.90;;;;;;5047150;28;20065;-73
2021/04/05 00:43:14;;;;;;;5.68;3.17;;;5.80;99.90;;;;;;5047466;28;20037;-73
2021/04/05 00:45:39;;;;;;;10.55;5.00;;;5.80;99.90;;;;;;5047050;28;20026;-72
2021/04/05 00:48:06;;;;;;;9.15;3.83;;;5.80;99.90;;;;;;5047002;28;20091;-71
2021/04/05 00:50:42;;;;;;;19.83;5.18;;;5.80;99.90;;;;;;5046951;28;20017;-72
2021/04/05 00:53:09;;;;;;;24.73;5.68;;;5.80;99.90;;;;;;5047112;28;20029;-73
2021/04/05 00:55:38;;;;;;;9.32;4.72;;;5.80;99.90;;;;;;5047123;28;20494;-72
2021/04/05 00:58:04;;;;;;;12.80;4.53;;;5.80;99.90;;;;;;5045652;28;20033;-73
2021/04/05 01:00:33;;;;;;;11.38;3.70;;;5.80;99.90;;;;;;5045398;28;20068;-71
2021/04/05 01:02:59;;;;;;;15.35;5.57;;;5.80;99.90;;;;;;5047189;28;20034;-73
2021/04/05 01:05:25;;;;;;;8.82;4.15;;;5.70;99.90;;;;;;5045381;28;20037;-75
2021/04/05 01:07:52;;;;;;;8.55;4.32;;;5.70;99.90;;;;;;5046769;28;20049;-73
2021/04/05 01:10:18;;;;;;;8.10;3.63;;;5.80;99.90;;;;;;5045472;28;20014;-73
2021/04/05 01:12:44;;;;;;;9.55;3.20;;;5.80;99.90;;;;;;5046822;28;20026;-72
2021/04/05 01:15:12;;;;;;;9.52;4.28;;;5.70;99.90;;;;;;5046583;28;20029;-69
2021/04/05 01:17:38;;;;;;;12.07;4.60;;;5.70;99.90;;;;;;5046212;28;20085;-71
2021/04/05 01:20:12;;;;;;;12.10;4.53;;;5.70;99.90;;;;;;5045228;28;20022;-73
2021/04/05 01:22:41;;;;;;;7.28;3.78;;;5.70;99.90;;;;;;5046640;28;20037;-72
2021/04/05 01:25:11;;;;;;;14.90;4.00;;;5.70;99.90;;;;;;5045135;28;20055;-71
2021/04/05 01:27:38;;;;;;;7.50;3.90;;;5.70;99.90;;;;;;5046194;28;20038;-71
2021/04/05 01:30:28;;;;;;;27.17;4.85;;;5.90;99.90;;;;;;5046410;28;20395;-71
2021/04/05 01:33:07;;;;;;;11.75;4.05;;;5.70;99.90;;;;;;5046593;28;20029;-72
2021/04/05 01:35:38;;;;;;;13.45;4.60;;;5.80;99.90;;;;;;5046358;28;20033;-71
2021/04/05 01:38:04;;;;;;;9.25;4.32;;;5.90;99.90;;;;;;5046313;28;20029;-71
2021/04/05 01:40:40;;;;;;;10.13;4.43;;;5.80;99.90;;;;;;5045094;28;20029;-73
2021/04/05 01:43:06;;;;;;;19.13;4.93;;;5.80;99.90;;;;;;5044937;28;20033;-72
2021/04/05 01:45:32;;;;;;;9.50;3.85;;;5.90;99.90;;;;;;5046425;28;20030;-74
2021/04/05 01:47:59;;;;;;;13.95;4.70;;;5.90;99.90;;;;;;5046089;28;20052;-74
2021/04/05 01:50:25;;;;;;;17.30;4.45;;;5.90;99.90;;;;;;5046187;28;20177;-70
2021/04/05 01:52:51;;;;;;;15.45;4.75;;;6.00;99.90;;;;;;5046053;28;20025;-71
2021/04/05 01:55:17;;;;;;;9.73;4.38;;;5.90;99.90;;;;;;5045791;28;20053;-72
2021/04/05 01:57:43;;;;;;;9.02;3.92;;;6.00;99.90;;;;;;5045602;28;20028;-73
2021/04/05 02:00:18;;;;;;;16.65;5.30;;;6.10;99.90;;;;;;5046094;28;20021;-74
2021/04/05 02:02:45;;;;;;;9.55;4.45;;;6.00;99.90;;;;;;5045786;28;20041;-71
2021/04/05 02:05:11;;;;;;;11.38;3.90;;;6.00;99.90;;;;;;5045768;28;20031;-73
2021/04/05 02:07:39;;;;;;;14.80;5.18;;;6.10;99.90;;;;;;5045722;28;20047;-72
2021/04/05 02:10:10;;;;;;;9.13;4.15;;;6.10;99.90;;;;;;5045613;28;20026;-71
2021/04/05 02:12:37;;;;;;;11.60;4.65;;;6.10;99.90;;;;;;5045593;28;20033;-71
2021/04/05 02:15:09;;;;;;;9.88;4.18;;;6.10;99.90;;;;;;5045605;28;20029;-71
2021/04/05 02:17:35;;;;;;;5.97;3.25;;;6.10;99.90;;;;;;5045164;28;20133;-71
2021/04/05 02:20:04;;;;;;;11.63;4.93;;;6.10;99.90;;;;;;5045335;28;20081;-71
2021/04/05 02:22:30;;;;;;;12.93;5.18;;;6.10;99.90;;;;;;5045126;28;20502;-71
2021/04/05 02:24:56;;;;;;;15.95;6.22;;;6.20;99.90;;;;;;5044250;28;20026;-75
2021/04/05 02:27:22;;;;;;;16.13;5.75;;;6.20;99.90;;;;;;5043943;28;20041;-72
2021/04/05 02:29:50;;;;;;;10.85;5.47;;;6.20;99.90;;;;;;5045242;28;20028;-73
2021/04/05 02:32:16;;;;;;;12.57;4.85;;;6.20;99.90;;;;;;5044108;28;20033;-71
2021/04/05 02:34:41;;;;;;;11.50;4.65;;;6.20;99.90;;;;;;5045284;28;20032;-72
2021/04/05 02:37:07;;;;;;;11.27;4.95;;;6.30;99.90;;;;;;5044790;28;20021;-71
2021/04/05 02:39:34;;;;;;;15.30;5.13;;;6.30;99.90;;;;;;5045217;28;20025;-72
2021/04/05 02:41:59;;;;;;;15.73;5.00;;;6.30;99.90;;;;;;5044984;28;20056;-74
2021/04/05 02:44:25;;;;;;;11.75;4.55;;;6.30;99.90;;;;;;5045209;28;20470;-71
2021/04/05 02:46:51;;;;;;;14.93;4.68;;;6.30;99.90;;;;;;5044923;28;20064;-72
2021/04/05 02:49:18;;;;;;;15.73;4.60;;;6.30;99.90;;;;;;5044915;28;20034;-74
2021/04/05 02:51:47;;;;;;;18.50;6.15;;;6.30;99.90;;;;;;5044326;28;20400;-73
2021/04/05 02:54:13;;;;;;;14.60;5.25;;;6.30;99.90;;;;;;5043413;28;20052;-71
2021/04/05 02:56:40;;;;;;;17.27;6.45;;;6.30;99.90;;;;;;5043412;28;20482;-70
2021/04/05 02:59:07;;;;;;;13.20;5.03;;;6.40;99.90;;;;;;5044710;28;20026;-73
2021/04/05 03:01:33;;;;;;;12.52;3.75;;;6.40;99.90;;;;;;5043549;28;20021;-73
2021/04/05 03:04:01;;;;;;;13.23;5.97;;;6.40;99.90;;;;;;5043421;28;20025;-71
2021/04/05 03:06:29;;;;;;;12.80;5.72;;;6.40;99.90;;;;;;5043516;28;20044;-73
2021/04/05 03:08:57;;;;;;;21.95;6.28;;;6.40;99.90;;;;;;5044735;28;20051;-75
2021/04/05 03:11:24;;;;;;;14.48;6.43;;;6.50;99.90;;;;;;5043365;28;20029;-70
2021/04/05 03:13:51;;;;;;;17.83;5.63;;;6.50;99.90;;;;;;5044706;28;20048;-72
2021/04/05 03:16:19;;;;;;;12.18;6.25;;;6.50;99.90;;;;;;5044605;28;20025;-71
2021/04/05 03:18:46;;;;;;;22.08;6.07;;;6.50;99.90;;;;;;5044297;28;20060;-72
2021/04/05 03:21:13;;;;;;;11.68;5.50;;;6.50;99.90;;;;;;5044189;28;20033;-72
2021/04/05 03:23:43;;;;;;;11.73;5.53;;;6.40;99.90;;;;;;5043229;28;20479;-74
2021/04/05 03:26:10;;;;;;;15.90;5.38;;;6.40;99.90;;;;;;5043095;28;20501;-72
2021/04/05 03:28:35;;;;;;;13.80;6.25;;;6.30;99.90;;;;;;5044569;28;20044;-72
2021/04/05 03:31:11;;;;;;;14.25;5.75;;;6.30;99.90;;;;;;5044747;28;20041;-76
2021/04/05 03:33:43;;;;;;;12.65;5.13;;;6.20;99.90;;;;;;5044498;28;20033;-74
2021/04/05 03:36:21;;;;;;;19.90;6.18;;;6.20;99.90;;;;;;5044540;28;20033;-72
2021/04/05 03:38:47;;;;;;;7.10;3.83;;;6.20;99.90;;;;;;5044446;28;20017;-73
2021/04/05 03:41:52;;;;;;;18.30;6.00;;;6.20;99.90;;;;;;5044201;28;20033;-72
2021/04/05 03:44:24;;;;;;;10.07;4.50;;;6.10;99.90;;;;;;5043007;28;20045;-74
2021/04/05 03:46:52;;;;;;;24.65;5.65;;;6.10;99.90;;;;;;5044362;28;20030;-73
2021/04/05 03:49:37;;;;;;;19.20;6.65;;;6.10;99.90;;;;;;5044277;28;20077;-71
2021/04/05 03:52:18;;;;;;;15.00;5.95;;;6.10;99.90;;;;;;5043101;28;20035;-71
2021/04/05 03:54:50;;;;;;;21.90;6.30;;;6.10;99.90;;;;;;5044281;28;20451;-70
2021/04/05 03:57:20;;;;;;;18.73;5.25;;;6.10;99.90;;;;;;5044256;28;20036;-71
2021/04/05 03:59:50;;;;;;;14.98;6.40;;;6.10;99.90;;;;;;5044497;28;20052;-70
2021/04/05 04:02:20;;;;;;;14.30;5.45;;;6.00;99.90;;;;;;5044287;28;20052;-72
2021/04/05 04:04:59;;;;;;;24.55;6.32;;;6.10;99.90;;;;;;5048217;28;20029;-73
2021/04/05 04:07:35;;;;;;;23.23;6.80;;;6.10;99.90;;;;;;5046836;28;20038;-74
2021/04/05 04:10:08;;;;;;;17.60;7.88;;;6.10;99.90;;;;;;5047877;28;20021;-75
2021/04/05 04:12:36;;;;;;;14.95;6.07;;;6.10;99.90;;;;;;5048000;28;20067;-72
2021/04/05 04:15:03;;;;;;;17.13;6.32;;;6.10;99.90;;;;;;5048034;28;20037;-73
2021/04/05 04:17:33;;;;;;;19.13;6.85;;;6.10;99.90;;;;;;5047484;28;20128;-73
2021/04/05 04:20:09;;;;;;;13.35;6.55;;;6.10;99.90;;;;;;5047750;28;20022;-73
2021/04/05 04:22:36;;;;;;;19.52;5.75;;;6.00;99.90;;;;;;5047847;28;20397;-72
2021/04/05 04:25:03;;;;;;;8.65;4.45;;;6.00;99.90;;;;;;5046309;28;20035;-75
2021/04/05 04:27:29;;;;;;;12.52;5.07;;;6.00;99.90;;;;;;5047714;28;20104;-75
2021/04/05 04:29:56;;;;;;;9.23;2.83;;;6.00;99.90;;;;;;5047834;28;20394;-72
2021/04/05 04:32:23;;;;;;;2.83;1.95;;;6.00;99.90;;;;;;5047672;28;20036;-74
2021/04/05 04:34:48;;;;;;;2.60;1.08;;;5.70;99.90;;;;;;5046289;28;20100;-75
2021/04/05 04:37:15;;;;;;;3.88;0.80;;;5.60;99.90;;;;;;5047536;28;20028;-76
2021/04/05 04:39:41;;;;;;;1.73;0.77;;;5.40;99.90;;;;;;5047582;28;20022;-74
2021/04/05 04:42:07;;;;;;;0.47;0.10;;;5.30;99.90;;;;;;5047097;28;20068;-74
2021/04/05 04:44:33;;;;;;;0.20;0.00;;;5.10;99.90;;;;;;5046004;28;20025;-72
2021/04/05 04:46:59;;;;;;;0.30;0.20;;;5.00;99.90;;;;;;5046072;28;20406;-73
2021/04/05 04:49:24;;;;;;;4.47;0.45;;;4.80;99.90;;;;;;5047306;28;20049;-75
2021/04/05 04:51:50;;;;;;;0.73;0.70;;;4.60;99.90;;;;;;5045775;28;20041;-73
2021/04/05 04:54:16;;;;;;;0.30;0.05;;;4.50;99.90;;;;;;5045900;28;20060;-75
2021/04/05 04:56:41;;;;;;;0.52;0.20;;;4.40;99.90;;;;;;5047023;28;20025;-74
2021/04/05 04:59:12;;;;;;;3.90;0.80;;;4.40;99.90;;;;;;5047010;28;20056;-73
2021/04/05 05:01:43;;;;;;;1.45;0.38;;;4.30;99.90;;;;;;5047133;28;20051;-73
2021/04/05 05:04:17;;;;;;;2.45;0.90;;;4.30;99.90;;;;;;5046845;28;20025;-73
2021/04/05 05:06:43;;;;;;;;;;;4.30;99.90;;;;;;5047328;28;20049;-74
2021/04/05 05:09:09;;;;;;;1.25;0.52;;;4.40;99.90;;;;;;5046793;28;19912;-75
2021/04/05 05:11:35;;;;;;;0.32;0.00;;;4.30;99.90;;;;;;5046771;28;20075;-74
2021/04/05 05:14:01;;;;;;;0.63;0.40;;;4.30;99.90;;;;;;5045247;28;20548;-73
2021/04/05 05:16:28;;;;;;;2.88;0.82;;;4.30;99.90;;;;;;5046894;28;20025;-73
2021/04/05 05:18:56;;;;;;;2.25;0.77;;;4.40;99.90;;;;;;5046419;28;21058;-76
2021/04/05 05:21:33;;;;;;;4.13;0.55;;;4.30;99.90;;;;;;5045481;28;20058;-73
2021/04/05 05:24:05;;;;;;;5.57;0.20;;;4.20;99.90;;;;;;5045603;28;20387;-78
2021/04/05 05:26:32;;;;;;;1.75;0.43;;;4.20;99.90;;;;;;5046453;28;20097;-76
2021/04/05 05:29:06;;;;;;;4.47;0.60;;;4.20;99.90;;;;;;5046735;28;20108;-77
2021/04/05 05:31:34;;;;;;;0.30;0.20;;;4.20;99.90;;;;;;5045347;28;20034;-76
2021/04/05 05:34:01;;;;;;;0.65;0.25;;;4.30;99.90;;;;;;5045072;28;20048;-76
2021/04/05 05:36:27;;;;;;;0.90;0.43;;;4.20;99.90;;;;;;5045003;28;20026;-73
2021/04/05 05:39:00;;;;;;;7.70;0.57;;;4.20;99.90;;;;;;5046463;28;20112;-72
2021/04/05 05:41:49;;;;;;;6.32;0.70;;;4.20;99.90;;;;;;5046175;28;20025;-72
2021/04/05 05:44:23;;;;;;;0.32;0.28;;;4.20;99.90;;;;;;5044241;28;20515;-72
2021/04/05 05:47:07;;;;;;;5.75;0.77;;;4.10;99.90;;;;;;5046153;28;20045;-69
2021/04/05 05:49:36;;;;;;;0.50;0.32;;;3.90;99.90;;;;;;5046230;28;20376;-71
2021/04/05 05:52:26;;;;;;;3.53;0.35;;;3.80;99.90;;;;;;5045974;28;20028;-73
2021/04/05 05:55:38;;;;;;;0.70;0.25;;;3.70;99.90;;;;;;5046012;28;20700;-72
2021/04/05 05:58:16;;;;;;;0.85;0.55;;;3.70;99.90;;;;;;5044290;28;20108;-74
2021/04/05 06:00:57;;;;;;;1.10;0.20;;;3.70;99.90;;;;;;5045777;28;20039;-71
2021/04/05 06:03:31;;;;;;;2.75;0.40;;;3.60;99.90;;;;;;5046041;28;20022;-72
2021/04/05 06:06:10;;;;;;;1.10;0.45;;;3.60;99.90;;;;;;5046013;28;20029;-74
2021/04/05 06:09:14;;;;;;;0.00;0.00;;;3.60;99.90;;;;;;5045631;28;20042;-74
2021/04/05 06:11:49;;;;;;;0.08;0.05;;;3.60;99.90;;;;;;5042623;28;20033;-72
2021/04/05 06:14:49;;;;;;;1.10;0.30;;;3.60;99.90;;;;;;5043523;28;20040;-72
2021/04/05 06:17:24;;;;;;;0.35;0.30;;;3.60;99.90;;;;;;5038825;28;20057;-72
2021/04/05 06:20:00;;;;;;;6.32;0.73;;;3.70;99.90;;;;;;5043790;28;20473;-72
2021/04/05 06:22:34;;;;;;;1.85;0.73;;;3.80;99.90;;;;;;5045029;28;20057;-74
2021/04/05 06:25:22;;;;;;;3.95;0.32;;;3.80;99.90;;;;;;5043031;28;20063;-73
2021/04/05 06:28:03;;;;;;;6.57;0.50;;;3.80;99.90;;;;;;5044894;28;20128;-71
2021/04/05 06:31:03;;;;;;;2.53;0.45;;;3.80;99.90;;;;;;5043734;28;20029;-71
2021/04/05 06:33:46;;;;;;;1.02;0.47;;;3.80;99.90;;;;;;5044819;28;20112;-72
2021/04/05 06:36:19;;;;;;;1.00;0.22;;;3.70;99.90;;;;;;5043611;28;20033;-73
2021/04/05 06:38:54;;;;;;;3.15;1.00;;;3.50;99.90;;;;;;5043222;28;20033;-71
2021/04/05 06:41:35;;;;;;;2.50;0.70;;;3.40;99.90;;;;;;5044374;28;20355;-68
2021/04/05 06:44:27;;;;;;;0.22;0.20;;;3.30;99.90;;;;;;5044572;28;20021;-71
2021/04/05 06:47:40;;;;;;;1.02;0.68;;;3.30;99.90;;;;;;5043668;28;20092;-72
2021/04/05 06:50:38;;;;;;;1.08;0.50;;;3.20;99.90;;;;;;5043947;28;20029;-70
2021/04/05 06:53:41;;;;;;;1.27;0.32;;;3.20;99.90;;;;;;5043217;28;20032;-71
2021/04/05 06:56:33;;;;;;;3.42;0.45;;;3.30;99.90;;;;;;5042877;28;20086;-71
2021/04/05 06:59:16;;;;;;;0.80;0.52;;;3.30;99.90;;;;;;5052924;28;20053;-72
2021/04/05 07:02:11;;;;;;;5.45;0.80;;;3.20;99.90;;;;;;5043129;28;20147;-71
2021/04/05 07:04:37;;;;;;;;;;;3.20;99.90;;;;;;5044231;28;20545;-72
2021/04/05 07:07:18;;;;;;;2.58;0.68;;;3.20;99.90;;;;;;5042929;28;19913;-70
2021/04/05 07:10:08;;;;;;;4.10;0.57;;;3.10;99.90;;;;;;5043524;28;20033;-69
2021/04/05 07:12:51;;;;;;;1.23;0.47;;;3.10;99.90;;;;;;5044367;28;20030;-70
2021/04/05 07:15:42;;;;;;;1.25;0.50;;;3.10;99.90;;;;;;5042369;28;20034;-72
2021/04/05 07:18:45;;;;;;;0.32;0.25;;;3.10;99.90;;;;;;5043762;28;20104;-71
2021/04/05 07:21:27;;;;;;;3.72;1.02;;;3.10;99.90;;;;;;5044313;28;20120;-68
2021/04/05 07:24:03;;;;;;;3.65;1.30;;;3.10;99.90;;;;;;5044155;28;20099;-70
2021/04/05 07:26:46;;;;;;;3.22;1.15;;;3.20;99.90;;;;;;5044435;28;20393;-70
2021/04/05 07:29:25;;;;;;;0.87;0.40;;;3.30;99.90;;;;;;5044146;28;20041;-69
2021/04/05 07:31:56;;;;;;;5.97;0.75;;;3.40;99.90;;;;;;5044075;28;20053;-69
2021/04/05 07:34:31;;;;;;;4.10;0.80;;;3.50;99.90;;;;;;5044282;28;20037;-70
2021/04/05 07:37:20;;;;;;;7.47;0.75;;;3.50;99.90;;;;;;5045414;28;20049;-70
2021/04/05 07:40:20;;;;;;;2.50;0.38;;;3.50;99.90;;;;;;5047810;28;20025;-70
2021/04/05 07:43:01;;;;;;;1.02;0.28;;;3.60;99.90;;;;;;5047864;28;20025;-71
2021/04/05 07:45:40;;;;;;;3.42;0.65;;;3.60;99.90;;;;;;5046337;28;20068;-70
2021/04/05 07:48:26;;;;;;;3.45;0.55;;;3.10;99.90;;;;;;5046429;28;20097;-71
2021/04/05 07:51:14;;;;;;;0.63;0.63;;;2.50;99.90;;;;;;5048034;28;20068;-70
2021/04/05 07:53:49;;;;;;;1.23;0.70;;;2.30;99.90;;;;;;5047984;28;20029;-69
2021/04/05 07:56:24;;;;;;;1.23;0.43;;;2.20;99.90;;;;;;5047796;28;20034;-67
2021/04/05 07:59:05;;;;;;;0.65;0.30;;;2.40;99.90;;;;;;5047400;28;20052;-69
2021/04/05 08:01:52;;;;;;;2.83;0.80;;;2.60;99.90;;;;;;5048049;28;20132;-72
2021/04/05 08:04:48;;;;;;;0.22;0.20;;;2.80;99.90;;;;;;5046912;28;20030;-72
2021/04/05 08:07:34;;;;;;;5.63;1.20;;;3.00;99.90;;;;;;5045974;28;20029;-69
2021/04/05 08:10:10;;;;;;;6.18;1.40;;;3.20;99.90;;;;;;5039232;28;20037;-70
2021/04/05 08:13:04;;;;;;;4.95;0.93;;;3.40;99.90;;;;;;5040061;28;20025;-72
2021/04/05 08:15:57;;;;;;;9.88;0.70;;;3.80;99.90;;;;;;5046630;28;20029;-72
2021/04/05 08:19:02;;;;;;;7.85;0.65;;;4.10;99.90;;;;;;5046114;28;20049;-70
2021/04/05 08:21:39;;;;;;;3.83;1.02;;;4.10;99.90;;;;;;5045606;28;20053;-73
2021/04/05 08:24:27;;;;;;;9.63;0.40;;;4.10;99.90;;;;;;5047174;28;20040;-73
2021/04/05 08:27:38;;;;;;;6.85;0.75;;;3.90;99.90;;;;;;5047152;28;20046;-70
2021/04/05 08:30:11;;;;;;;0.45;0.35;;;3.40;99.90;;;;;;5047024;28;20045;-70
2021/04/05 08:32:41;;;;;;;3.67;0.43;;;2.80;99.90;;;;;;5046015;28;20500;-73
2021/04/05 08:35:36;;;;;;;1.38;0.10;;;2.30;99.90;;;;;;5040175;28;20071;-70
2021/04/05 08:38:30;;;;;;;0.35;0.13;;;2.10;99.90;;;;;;5043783;28;20104;-69
2021/04/05 08:41:02;;;;;;;5.68;0.85;;;1.90;99.90;;;;;;5032621;28;20087;-69
2021/04/05 08:44:00;;;;;;;3.28;0.65;;;1.80;99.90;;;;;;5028843;28;20092;-71
2021/04/05 08:46:32;;;;;;;4.30;0.65;;;1.80;99.90;;;;;;5044761;28;20482;-70
2021/04/05 08:49:03;;;;;;;9.55;1.02;;;1.80;99.90;;;;;;5044452;28;20029;-73
2021/04/05 08:51:52;;;;;;;16.08;0.70;;;1.80;99.90;;;;;;5046490;28;20077;-72
2021/04/05 08:54:27;;;;;;;3.25;0.90;;;2.00;99.90;;;;;;5044631;28;20049;-73
2021/04/05 08:57:04;;;;;;;1.50;0.43;;;2.10;99.90;;;;;;5046730;28;20032;-71
2021/04/05 08:59:43;;;;;;;2.28;0.40;;;2.20;99.90;;;;;;5046859;28;20057;-70
2021/04/05 09:02:21;;;;;;;6.70;1.45;;;2.20;99.90;;;;;;5046149;28;20033;-70
2021/04/05 09:04:49;;;;;;;1.98;0.70;;;2.40;99.90;;;;;;5045440;28;20057;-71
2021/04/05 09:07:27;;;;;;;1.85;0.95;;;2.60;99.90;;;;;;5045143;28;20041;-70
2021/04/05 09:09:57;;;;;;;9.23;0.65;;;3.00;99.90;;;;;;5046287;28;20036;-71
2021/04/05 09:12:25;;;;;;;10.15;1.10;;;3.40;99.90;;;;;;5045190;28;20025;-72
2021/04/05 09:15:26;;;;;;;0.80;0.50;;;3.80;99.90;;;;;;5046452;28;20100;-72
2021/04/05 09:18:08;;;;;;;7.90;1.35;;;4.00;99.90;;;;;;5046169;28;20053;-71
2021/04/05 09:20:56;;;;;;;7.05;0.93;;;3.90;99.90;;;;;;5045427;28;20391;-70
2021/04/05 09:24:03;;;;;;;6.28;1.08;;;3.80;99.90;;;;;;5046173;28;20731;-72
2021/04/05 09:26:38;;;;;;;4.80;1.15;;;3.80;99.90;;;;;;5046313;28;20513;-73
2021/04/05 09:29:45;;;;;;;9.38;1.25;;;3.60;99.90;;;;;;5046291;28;20029;-71
2021/04/05 09:32:44;;;;;;;7.13;0.82;;;3.60;99.90;;;;;;5045673;28;20323;-70
2021/04/05 09:35:23;;;;;;;0.35;0.35;;;3.70;99.90;;;;;;5045375;28;20026;-73
2021/04/05 09:38:04;;;;;;;11.23;1.25;;;3.60;99.90;;;;;;5045730;28;20073;-71
2021/04/05 09:40:55;;;;;;;7.00;1.17;;;3.40;99.90;;;;;;5045846;28;20041;-71
2021/04/05 09:43:41;;;;;;;1.15;0.47;;;3.30;99.90;;;;;;5042079;28;20045;-71
2021/04/05 09:46:44;;;;;;;2.08;0.77;;;3.10;99.90;;;;;;5044697;28;20048;-70
2021/04/05 09:49:29;;;;;;;0.45;0.43;;;2.80;99.90;;;;;;5045620;28;20496;-72
2021/04/05 09:52:29;;;;;;;2.35;0.40;;;2.50;99.90;;;;;;5043744;28;20037;-70
2021/04/05 09:55:02;;;;;;;1.55;0.52;;;2.30;99.90;;;;;;5044996;28;20033;-70
2021/04/05 09:57:41;;;;;;;0.95;0.60;;;2.30;99.90;;;;;;5044408;28;20026;-72
2021/04/05 10:00:11;;;;;;;1.80;0.57;;;2.50;99.90;;;;;;5044660;28;20079;-71
2021/04/05 10:03:02;;;;;;;8.10;0.50;;;2.80;99.90;;;;;;5042189;28;20033;-70
2021/04/05 10:05:32;;;;;;;7.10;1.27;;;3.40;99.90;;;;;;5048942;28;20116;-72
2021/04/05 10:07:58;;;;;;;3.67;1.00;;;3.70;99.90;;;;;;5043471;28;20052;-72
2021/04/05 10:10:29;;;;;;;3.95;1.27;;;4.20;99.90;;;;;;5043710;28;20033;-70
2021/04/05 10:12:58;;;;;;;5.85;0.80;;;4.60;99.90;;;;;;5045197;28;20433;-71
2021/04/05 10:15:31;;;;;;;7.07;1.02;;;4.70;99.90;;;;;;5045396;28;20452;-71
2021/04/05 10:18:00;;;;;;;1.58;0.57;;;5.00;99.90;;;;;;5045396;28;20042;-70
2021/04/05 10:20:28;;;;;;;2.85;1.02;;;5.10;99.90;;;;;;5045564;28;20070;-72
2021/04/05 10:22:56;;;;;;;2.85;0.55;;;5.40;99.90;;;;;;5045296;28;20734;-70
2021/04/05 10:25:24;;;;;;;4.57;1.00;;;5.50;99.90;;;;;;5045116;28;20030;-71
2021/04/05 10:28:03;;;;;;;4.10;0.75;;;5.60;99.90;;;;;;5043443;28;20048;-71
2021/04/05 10:30:37;;;;;;;0.20;0.20;;;5.60;99.90;;;;;;5045034;28;20104;-70
2021/04/05 10:33:16;;;;;;;0.52;0.25;;;5.50;99.90;;;;;;5045268;28;20367;-72
2021/04/05 10:35:51;;;;;;;0.82;0.47;;;5.80;99.90;;;;;;5044103;28;20045;-71
2021/04/05 10:38:18;;;;;;;5.45;1.05;;;6.00;99.90;;;;;;5043123;28;20052;-71
2021/04/05 10:40:44;;;;;;;0.52;0.52;;;6.40;99.90;;;;;;5044361;28;20142;-69
2021/04/05 10:43:22;;;;;;;5.22;1.15;;;6.80;99.90;;;;;;5044558;28;20040;-70
2021/04/05 10:46:05;;;;;;;0.60;0.47;;;7.20;99.90;;;;;;5044232;28;20021;-71
2021/04/05 10:48:41;;;;;;;8.98;0.80;;;7.20;99.90;;;;;;5044491;28;20051;-71
2021/04/05 10:51:17;;;;;;;1.25;0.57;;;6.10;99.90;;;;;;5044646;28;20043;-71
2021/04/05 10:53:45;;;;;;;1.27;0.52;;;5.20;99.90;;;;;;5043179;28;20026;-74
2021/04/05 10:56:12;;;;;;;2.00;0.30;;;4.70;99.90;;;;;;5042374;28;20413;-70
2021/04/05 10:58:52;;;;;;;3.15;0.90;;;4.70;99.90;;;;;;5044279;28;20047;-73
2021/04/05 11:01:20;;;;;;;1.35;0.73;;;5.20;99.90;;;;;;5044253;28;20115;-72
2021/04/05 11:03:49;;;;;;;1.08;0.43;;;5.70;99.90;;;;;;5042992;28;20033;-72
2021/04/05 11:06:18;;;;;;;1.25;0.40;;;5.80;99.90;;;;;;5044392;28;20143;-70
2021/04/05 11:08:47;;;;;;;0.70;0.47;;;5.90;99.90;;;;;;5042212;28;20025;-73
2021/04/05 11:11:20;;;;;;;3.53;0.90;;;6.10;99.90;;;;;;5042341;28;20021;-73
2021/04/05 11:13:52;;;;;;;1.25;0.28;;;6.40;99.90;;;;;;5042863;28;20036;-72
2021/04/05 11:16:20;;;;;;;3.90;0.82;;;6.70;99.90;;;;;;5043144;28;20087;-72
2021/04/05 11:19:00;;;;;;;1.35;0.65;;;6.60;99.90;;;;;;5025403;28;20053;-72
2021/04/05 11:21:35;;;;;;;5.75;0.95;;;6.90;99.90;;;;;;5024707;28;20065;-75
2021/04/05 11:24:02;;;;;;;2.97;0.75;;;6.60;99.90;;;;;;5024606;28;20057;-72
2021/04/05 11:26:34;;;;;;;1.73;0.50;;;6.70;99.90;;;;;;5039325;28;20045;-73
2021/04/05 11:29:03;;;;;;;2.45;0.55;;;6.80;99.90;;;;;;5023303;28;20030;-75
2021/04/05 11:31:35;;;;;;;8.82;0.90;;;6.80;99.90;;;;;;5033806;28;20025;-73
2021/04/05 11:34:01;;;;;;;2.83;0.82;;;6.70;99.90;;;;;;5043968;28;20030;-72
2021/04/05 11:36:48;;;;;;;0.98;0.38;;;6.90;99.90;;;;;;5041373;28;20089;-73
2021/04/05 11:39:19;;;;;;;2.10;0.77;;;7.10;99.90;;;;;;5043770;28;20093;-72
2021/04/05 11:41:50;;;;;;;1.27;0.60;;;7.00;99.90;;;;;;5043528;28;20029;-72
2021/04/05 11:44:21;;;;;;;0.63;0.25;;;6.90;99.90;;;;;;5042352;28;20049;-70
2021/04/05 11:46:48;;;;;;;4.15;1.13;;;6.70;99.90;;;;;;5043168;28;20470;-70
2021/04/05 11:49:14;;;;;;;3.70;0.77;;;6.90;99.90;;;;;;5043126;28;20025;-70
2021/04/05 11:51:54;;;;;;;2.13;0.60;;;6.80;99.90;;;;;;5043384;28;20447;-71
2021/04/05 11:54:52;;;;;;;6.30;0.82;;;6.90;99.90;;;;;;5043465;28;20075;-69
2021/04/05 11:57:36;;;;;;;6.82;0.80;;;7.00;99.90;;;;;;5042522;28;20068;-70
2021/04/05 12:00:15;;;;;;;2.63;0.77;;;6.30;99.90;;;;;;5043251;28;20038;-75
2021/04/05 12:03:06;;;;;;;0.75;0.55;;;6.50;99.90;;;;;;5041444;28;20060;-71
2021/04/05 12:05:41;;;;;;;4.90;0.88;;;7.00;99.90;;;;;;5043302;28;20053;-74
2021/04/05 12:08:30;;;;;;;2.15;0.55;;;7.20;99.90;;;;;;5043086;28;20033;-72
2021/04/05 12:11:07;;;;;;;3.72;1.10;;;7.20;99.90;;;;;;5041994;28;20425;-72
2021/04/05 12:13:40;;;;;;;2.75;0.50;;;7.60;99.90;;;;;;5042809;28;20378;-72
2021/04/05 12:16:07;;;;;;;2.10;0.43;;;8.00;99.90;;;;;;5041823;28;20064;-74
2021/04/05 12:18:35;;;;;;;0.88;0.30;;;7.20;99.90;;;;;;5042636;28;20045;-73
2021/04/05 12:21:09;;;;;;;2.92;0.43;;;6.10;99.90;;;;;;5042226;28;20040;-74
2021/04/05 12:23:35;;;;;;;2.75;0.63;;;5.30;99.90;;;;;;5043626;28;20051;-73
2021/04/05 12:26:02;;;;;;;3.10;0.68;;;4.70;99.90;;;;;;5045426;28;20433;-72
2021/04/05 12:28:41;;;;;;;4.68;0.90;;;4.40;99.90;;;;;;5045259;28;20044;-73
2021/04/05 12:31:08;;;;;;;3.00;0.57;;;4.30;99.90;;;;;;5046426;28;20055;-71
2021/04/05 12:33:38;;;;;;;1.50;0.32;;;4.50;99.90;;;;;;5046553;28;20041;-72
2021/04/05 12:36:07;;;;;;;0.50;0.30;;;5.00;99.90;;;;;;5046647;28;20481;-70
2021/04/05 12:38:39;;;;;;;2.10;0.32;;;5.60;99.90;;;;;;5045038;28;20057;-72
2021/04/05 12:41:08;;;;;;;1.88;0.50;;;6.10;99.90;;;;;;5046514;28;20034;-72
2021/04/05 12:43:42;;;;;;;1.27;0.57;;;6.60;99.90;;;;;;5046197;28;20037;-74
2021/04/05 12:46:15;;;;;;;6.72;0.75;;;7.20;99.90;;;;;;5046611;28;20116;-70
2021/04/05 12:48:42;;;;;;;5.55;0.82;;;7.40;99.90;;;;;;5046326;28;20033;-72
2021/04/05 12:51:10;;;;;;;0.20;0.20;;;7.30;99.90;;;;;;5046038;28;20052;-72
2021/04/05 12:53:39;;;;;;;1.60;0.60;;;7.50;99.90;;;;;;5045974;28;20026;-73
2021/04/05 12:56:28;;;;;;;0.57;0.40;;;7.90;99.90;;;;;;5046062;28;20056;-71
2021/04/05 12:58:55;;;;;;;0.35;0.20;;;8.20;99.90;;;;;;5046084;28;20037;-73
2021/04/05 13:01:49;;;;;;;2.97;0.40;;;8.50;99.90;;;;;;5046280;28;20029;-71
2021/04/05 13:04:24;;;;;;;5.32;1.00;;;8.10;99.90;;;;;;5046257;28;20493;-73
2021/04/05 13:06:58;;;;;;;2.50;1.00;;;8.00;99.90;;;;;;5045836;28;20033;-73
2021/04/05 13:09:32;;;;;;;3.38;0.90;;;7.70;99.90;;;;;;5046049;28;20032;-71
2021/04/05 13:12:10;;;;;;;1.52;0.52;;;7.40;99.90;;;;;;5046050;28;20108;-72
2021/04/05 13:14:48;;;;;;;0.40;0.30;;;7.40;99.90;;;;;;5045871;28;20025;-72
2021/04/05 13:17:29;;;;;;;3.50;0.82;;;7.40;99.90;;;;;;5045462;28;20033;-72
2021/04/05 13:20:11;;;;;;;1.95;0.77;;;7.30;99.90;;;;;;5044363;28;20061;-74
2021/04/05 13:22:41;;;;;;;1.58;0.75;;;7.30;99.90;;;;;;5044584;28;20025;-72
2021/04/05 13:25:12;;;;;;;3.47;0.93;;;7.30;99.90;;;;;;5045797;28;20047;-72
2021/04/05 13:27:40;;;;;;;1.75;0.65;;;7.00;99.90;;;;;;5043976;28;20046;-73
2021/04/05 13:30:09;;;;;;;5.32;0.40;;;7.10;99.90;;;;;;5045339;28;20052;-74
2021/04/05 13:32:37;;;;;;;3.10;0.55;;;7.00;99.90;;;;;;5045570;28;20565;-71
2021/04/05 13:35:07;;;;;;;1.42;0.77;;;6.40;99.90;;;;;;5045163;28;20025;-73